sensor_id;sensor_type;location;lat;lon;timestamp;P1;durP1;ratioP1;P2;durP2;ratioP2
22969;SDS011;11651;52.136;5.572;2022-08-03T00:53:00;6.88;;;2.15;;
22969;SDS011;11651;52.136;5.572;2022-08-03T00:55:49;4.05;;;1.92;;
22969;SDS011;11651;52.136;5.572;2022-08-03T00:58:36;5.32;;;2.03;;
22969;SDS011;11651;52.136;5.572;2022-08-03T01:01:04;6.05;;;2.20;;
22969;SDS011;11651;52.136;5.572;2022-08-03T01:03:44;3.60;;;1.98;;
22969;SDS011;11651;52.136;5.572;2022-08-03T01:09:50;8.07;;;2.25;;
22969;SDS011;11651;52.136;5.572;2022-08-03T01:18:51;7.07;;;2.50;;
22969;SDS011;11651;52.136;5.572;2022-08-03T01:30:34;7.38;;;2.35;;
22969;SDS011;11651;52.136;5.572;2022-08-03T01:33:16;5.35;;;2.38;;
22969;SDS011;11651;52.136;5.572;2022-08-03T01:35:46;7.18;;;2.50;;
22969;SDS011;11651;52.136;5.572;2022-08-03T01:38:23;8.40;;;2.70;;
22969;SDS011;11651;52.136;5.572;2022-08-03T01:40:51;8.35;;;2.40;;
22969;SDS011;11651;52.136;5.572;2022-08-03T01:43:25;6.07;;;2.60;;
22969;SDS011;11651;52.136;5.572;2022-08-03T01:45:53;5.07;;;2.00;;
22969;SDS011;11651;52.136;5.572;2022-08-03T01:48:21;5.82;;;2.38;;
22969;SDS011;11651;52.136;5.572;2022-08-03T01:50:54;8.80;;;2.53;;
22969;SDS011;11651;52.136;5.572;2022-08-03T01:53:23;6.03;;;2.38;;
22969;SDS011;11651;52.136;5.572;2022-08-03T01:55:51;8.52;;;2.75;;
22969;SDS011;11651;52.136;5.572;2022-08-03T01:58:19;7.28;;;2.70;;
22969;SDS011;11651;52.136;5.572;2022-08-03T02:00:47;6.85;;;2.85;;
22969;SDS011;11651;52.136;5.572;2022-08-03T02:03:16;6.85;;;2.63;;
22969;SDS011;11651;52.136;5.572;2022-08-03T02:05:45;5.97;;;2.90;;
22969;SDS011;11651;52.136;5.572;2022-08-03T02:08:12;5.40;;;2.50;;
22969;SDS011;11651;52.136;5.572;2022-08-03T02:10:42;7.25;;;2.80;;
22969;SDS011;11651;52.136;5.572;2022-08-03T02:13:10;6.97;;;2.70;;
22969;SDS011;11651;52.136;5.572;2022-08-03T02:15:38;6.43;;;2.83;;
22969;SDS011;11651;52.136;5.572;2022-08-03T02:18:06;6.78;;;2.85;;
22969;SDS011;11651;52.136;5.572;2022-08-03T02:21:03;7.07;;;2.90;;
22969;SDS011;11651;52.136;5.572;2022-08-03T02:23:31;5.68;;;2.95;;
22969;SDS011;11651;52.136;5.572;2022-08-03T02:26:01;7.38;;;3.28;;
22969;SDS011;11651;52.136;5.572;2022-08-03T02:28:30;7.75;;;3.50;;
22969;SDS011;11651;52.136;5.572;2022-08-03T02:31:27;5.95;;;2.97;;
22969;SDS011;11651;52.136;5.572;2022-08-03T02:34:05;8.23;;;3.50;;
22969;SDS011;11651;52.136;5.572;2022-08-03T02:36:48;6.10;;;2.97;;
22969;SDS011;11651;52.136;5.572;2022-08-03T02:39:16;7.28;;;3.15;;
22969;SDS011;11651;52.136;5.572;2022-08-03T02:41:50;10.77;;;3.70;;
22969;SDS011;11651;52.136;5.572;2022-08-03T02:44:27;10.82;;;3.55;;
22969;SDS011;11651;52.136;5.572;2022-08-03T02:47:01;5.90;;;3.00;;
22969;SDS011;11651;52.136;5.572;2022-08-03T02:49:29;8.05;;;3.40;;
22969;SDS011;11651;52.136;5.572;2022-08-03T02:51:56;8.52;;;3.15;;
22969;SDS011;11651;52.136;5.572;2022-08-03T02:54:23;8.60;;;3.55;;
22969;SDS011;11651;52.136;5.572;2022-08-03T02:56:51;7.53;;;3.45;;
22969;SDS011;11651;52.136;5.572;2022-08-03T02:59:20;10.38;;;3.05;;
22969;SDS011;11651;52.136;5.572;2022-08-03T03:01:53;6.55;;;3.08;;
22969;SDS011;11651;52.136;5.572;2022-08-03T03:04:25;11.68;;;3.42;;
22969;SDS011;11651;52.136;5.572;2022-08-03T03:06:52;8.82;;;3.13;;
22969;SDS011;11651;52.136;5.572;2022-08-03T03:09:19;7.38;;;3.30;;
22969;SDS011;11651;52.136;5.572;2022-08-03T03:11:45;4.88;;;2.80;;
22969;SDS011;11651;52.136;5.572;2022-08-03T03:14:21;8.48;;;3.33;;
22969;SDS011;11651;52.136;5.572;2022-08-03T03:16:49;7.55;;;3.45;;
22969;SDS011;11651;52.136;5.572;2022-08-03T03:19:19;9.93;;;3.72;;
22969;SDS011;11651;52.136;5.572;2022-08-03T03:21:45;7.53;;;3.30;;
22969;SDS011;11651;52.136;5.572;2022-08-03T03:24:14;10.75;;;3.83;;
22969;SDS011;11651;52.136;5.572;2022-08-03T03:26:49;8.93;;;4.05;;
22969;SDS011;11651;52.136;5.572;2022-08-03T03:29:18;7.05;;;3.72;;
22969;SDS011;11651;52.136;5.572;2022-08-03T03:31:43;8.75;;;4.32;;
22969;SDS011;11651;52.136;5.572;2022-08-03T03:34:10;8.95;;;3.60;;
22969;SDS011;11651;52.136;5.572;2022-08-03T03:36:46;10.05;;;4.13;;
22969;SDS011;11651;52.136;5.572;2022-08-03T03:39:12;11.30;;;4.00;;
22969;SDS011;11651;52.136;5.572;2022-08-03T03:41:38;6.65;;;3.47;;
22969;SDS011;11651;52.136;5.572;2022-08-03T03:44:04;12.25;;;3.45;;
22969;SDS011;11651;52.136;5.572;2022-08-03T03:46:30;9.05;;;4.03;;
22969;SDS011;11651;52.136;5.572;2022-08-03T03:48:56;10.63;;;4.43;;
22969;SDS011;11651;52.136;5.572;2022-08-03T03:51:22;8.27;;;3.45;;
22969;SDS011;11651;52.136;5.572;2022-08-03T03:53:55;10.80;;;4.05;;
22969;SDS011;11651;52.136;5.572;2022-08-03T03:56:22;11.93;;;4.50;;
22969;SDS011;11651;52.136;5.572;2022-08-03T03:58:50;13.65;;;4.00;;
22969;SDS011;11651;52.136;5.572;2022-08-03T04:01:17;12.00;;;3.58;;
22969;SDS011;11651;52.136;5.572;2022-08-03T04:03:43;12.02;;;4.43;;
22969;SDS011;11651;52.136;5.572;2022-08-03T04:06:08;12.70;;;4.50;;
22969;SDS011;11651;52.136;5.572;2022-08-03T04:08:53;10.38;;;3.90;;
22969;SDS011;11651;52.136;5.572;2022-08-03T04:11:42;13.02;;;4.22;;
22969;SDS011;11651;52.136;5.572;2022-08-03T04:16:54;8.10;;;3.60;;
22969;SDS011;11651;52.136;5.572;2022-08-03T04:19:39;9.50;;;3.40;;
22969;SDS011;11651;52.136;5.572;2022-08-03T04:22:10;10.88;;;3.70;;
22969;SDS011;11651;52.136;5.572;2022-08-03T04:24:49;8.57;;;3.55;;
22969;SDS011;11651;52.136;5.572;2022-08-03T04:27:23;9.13;;;3.20;;
22969;SDS011;11651;52.136;5.572;2022-08-03T04:29:52;9.13;;;3.53;;
22969;SDS011;11651;52.136;5.572;2022-08-03T04:32:21;12.57;;;3.67;;
22969;SDS011;11651;52.136;5.572;2022-08-03T04:34:50;10.15;;;3.47;;
22969;SDS011;11651;52.136;5.572;2022-08-03T04:37:29;10.63;;;3.65;;
22969;SDS011;11651;52.136;5.572;2022-08-03T04:40:09;12.55;;;3.97;;
22969;SDS011;11651;52.136;5.572;2022-08-03T04:42:38;13.70;;;4.20;;
22969;SDS011;11651;52.136;5.572;2022-08-03T04:45:06;10.35;;;3.90;;
22969;SDS011;11651;52.136;5.572;2022-08-03T04:47:35;10.20;;;3.80;;
22969;SDS011;11651;52.136;5.572;2022-08-03T04:50:03;8.73;;;3.95;;
22969;SDS011;11651;52.136;5.572;2022-08-03T04:52:30;13.02;;;4.40;;
22969;SDS011;11651;52.136;5.572;2022-08-03T04:54:57;10.93;;;4.32;;
22969;SDS011;11651;52.136;5.572;2022-08-03T04:57:22;9.93;;;4.00;;
22969;SDS011;11651;52.136;5.572;2022-08-03T04:59:48;11.73;;;4.65;;
22969;SDS011;11651;52.136;5.572;2022-08-03T05:02:18;11.98;;;4.07;;
22969;SDS011;11651;52.136;5.572;2022-08-03T05:04:44;11.57;;;4.40;;
22969;SDS011;11651;52.136;5.572;2022-08-03T05:07:12;13.55;;;4.72;;
22969;SDS011;11651;52.136;5.572;2022-08-03T05:09:38;12.73;;;4.50;;
22969;SDS011;11651;52.136;5.572;2022-08-03T05:12:04;16.33;;;4.88;;
22969;SDS011;11651;52.136;5.572;2022-08-03T05:14:31;18.38;;;4.63;;
22969;SDS011;11651;52.136;5.572;2022-08-03T05:16:57;13.38;;;4.55;;
22969;SDS011;11651;52.136;5.572;2022-08-03T05:19:22;11.45;;;4.22;;
22969;SDS011;11651;52.136;5.572;2022-08-03T05:21:48;14.18;;;4.65;;
22969;SDS011;11651;52.136;5.572;2022-08-03T05:24:14;15.90;;;4.45;;
22969;SDS011;11651;52.136;5.572;2022-08-03T05:26:39;18.45;;;4.68;;
22969;SDS011;11651;52.136;5.572;2022-08-03T05:29:05;14.95;;;4.65;;
22969;SDS011;11651;52.136;5.572;2022-08-03T05:31:31;18.35;;;4.75;;
22969;SDS011;11651;52.136;5.572;2022-08-03T05:33:56;12.27;;;4.85;;
22969;SDS011;11651;52.136;5.572;2022-08-03T05:36:22;14.48;;;4.72;;
22969;SDS011;11651;52.136;5.572;2022-08-03T05:38:48;16.92;;;4.75;;
22969;SDS011;11651;52.136;5.572;2022-08-03T05:41:13;13.15;;;4.90;;
22969;SDS011;11651;52.136;5.572;2022-08-03T05:43:39;16.95;;;5.03;;
22969;SDS011;11651;52.136;5.572;2022-08-03T05:46:04;13.23;;;4.78;;
22969;SDS011;11651;52.136;5.572;2022-08-03T05:48:30;15.02;;;4.80;;
22969;SDS011;11651;52.136;5.572;2022-08-03T05:50:55;16.95;;;5.07;;
22969;SDS011;11651;52.136;5.572;2022-08-03T05:53:21;15.18;;;4.72;;
22969;SDS011;11651;52.136;5.572;2022-08-03T05:55:46;17.52;;;4.80;;
22969;SDS011;11651;52.136;5.572;2022-08-03T05:58:12;16.23;;;5.80;;
22969;SDS011;11651;52.136;5.572;2022-08-03T06:00:38;17.48;;;4.70;;
22969;SDS011;11651;52.136;5.572;2022-08-03T06:03:03;15.02;;;4.90;;
22969;SDS011;11651;52.136;5.572;2022-08-03T06:05:29;12.13;;;4.95;;
22969;SDS011;11651;52.136;5.572;2022-08-03T06:07:55;13.23;;;4.90;;
22969;SDS011;11651;52.136;5.572;2022-08-03T06:10:20;14.80;;;5.40;;
22969;SDS011;11651;52.136;5.572;2022-08-03T06:12:46;16.23;;;5.03;;
22969;SDS011;11651;52.136;5.572;2022-08-03T06:15:13;13.98;;;4.53;;
22969;SDS011;11651;52.136;5.572;2022-08-03T06:17:48;15.85;;;5.32;;
22969;SDS011;11651;52.136;5.572;2022-08-03T06:20:16;16.70;;;5.30;;
22969;SDS011;11651;52.136;5.572;2022-08-03T06:22:44;19.30;;;5.03;;
22969;SDS011;11651;52.136;5.572;2022-08-03T06:25:10;13.02;;;4.85;;
22969;SDS011;11651;52.136;5.572;2022-08-03T06:27:36;15.35;;;4.03;;
22969;SDS011;11651;52.136;5.572;2022-08-03T06:30:04;14.85;;;4.65;;
22969;SDS011;11651;52.136;5.572;2022-08-03T06:32:31;19.10;;;4.63;;
22969;SDS011;11651;52.136;5.572;2022-08-03T06:34:57;14.27;;;4.18;;
22969;SDS011;11651;52.136;5.572;2022-08-03T06:37:23;10.60;;;4.18;;
22969;SDS011;11651;52.136;5.572;2022-08-03T06:39:51;13.60;;;4.20;;
22969;SDS011;11651;52.136;5.572;2022-08-03T06:42:17;10.18;;;4.13;;
22969;SDS011;11651;52.136;5.572;2022-08-03T06:44:42;14.70;;;4.32;;
22969;SDS011;11651;52.136;5.572;2022-08-03T06:47:08;16.33;;;4.70;;
22969;SDS011;11651;52.136;5.572;2022-08-03T06:49:33;22.40;;;4.68;;
22969;SDS011;11651;52.136;5.572;2022-08-03T06:51:59;12.15;;;4.38;;
22969;SDS011;11651;52.136;5.572;2022-08-03T06:54:25;12.65;;;4.07;;
22969;SDS011;11651;52.136;5.572;2022-08-03T06:56:51;14.52;;;4.70;;
22969;SDS011;11651;52.136;5.572;2022-08-03T06:59:16;16.67;;;4.70;;
22969;SDS011;11651;52.136;5.572;2022-08-03T07:01:42;11.73;;;4.60;;
22969;SDS011;11651;52.136;5.572;2022-08-03T07:04:07;17.00;;;4.85;;
22969;SDS011;11651;52.136;5.572;2022-08-03T07:06:33;14.55;;;4.50;;
22969;SDS011;11651;52.136;5.572;2022-08-03T07:08:59;14.68;;;4.57;;
22969;SDS011;11651;52.136;5.572;2022-08-03T07:11:25;13.27;;;4.05;;
22969;SDS011;11651;52.136;5.572;2022-08-03T07:13:50;9.90;;;4.10;;
22969;SDS011;11651;52.136;5.572;2022-08-03T07:16:16;16.65;;;4.60;;
22969;SDS011;11651;52.136;5.572;2022-08-03T07:18:41;13.80;;;4.38;;
22969;SDS011;11651;52.136;5.572;2022-08-03T07:21:07;14.80;;;4.40;;
22969;SDS011;11651;52.136;5.572;2022-08-03T07:23:34;11.30;;;4.32;;
22969;SDS011;11651;52.136;5.572;2022-08-03T07:26:00;12.48;;;4.40;;
22969;SDS011;11651;52.136;5.572;2022-08-03T07:28:26;18.55;;;4.55;;
22969;SDS011;11651;52.136;5.572;2022-08-03T07:30:52;12.27;;;3.60;;
22969;SDS011;11651;52.136;5.572;2022-08-03T07:33:17;9.98;;;3.83;;
22969;SDS011;11651;52.136;5.572;2022-08-03T07:35:43;12.40;;;3.92;;
22969;SDS011;11651;52.136;5.572;2022-08-03T07:38:09;13.27;;;3.80;;
22969;SDS011;11651;52.136;5.572;2022-08-03T07:40:35;12.40;;;3.40;;
22969;SDS011;11651;52.136;5.572;2022-08-03T07:43:00;10.50;;;3.45;;
22969;SDS011;11651;52.136;5.572;2022-08-03T07:45:29;11.88;;;3.53;;
22969;SDS011;11651;52.136;5.572;2022-08-03T07:47:55;12.77;;;3.35;;
22969;SDS011;11651;52.136;5.572;2022-08-03T07:50:21;17.77;;;4.45;;
22969;SDS011;11651;52.136;5.572;2022-08-03T07:52:47;11.30;;;3.75;;
22969;SDS011;11651;52.136;5.572;2022-08-03T07:55:14;12.02;;;3.65;;
22969;SDS011;11651;52.136;5.572;2022-08-03T07:57:41;12.23;;;3.30;;
22969;SDS011;11651;52.136;5.572;2022-08-03T08:00:11;13.80;;;3.80;;
22969;SDS011;11651;52.136;5.572;2022-08-03T08:02:41;14.65;;;3.58;;
22969;SDS011;11651;52.136;5.572;2022-08-03T08:05:07;12.30;;;3.30;;
22969;SDS011;11651;52.136;5.572;2022-08-03T08:07:37;16.92;;;4.00;;
22969;SDS011;11651;52.136;5.572;2022-08-03T08:10:06;12.10;;;3.00;;
22969;SDS011;11651;52.136;5.572;2022-08-03T08:12:34;16.55;;;3.63;;
22969;SDS011;11651;52.136;5.572;2022-08-03T08:15:00;14.63;;;3.10;;
22969;SDS011;11651;52.136;5.572;2022-08-03T08:17:27;12.27;;;3.10;;
22969;SDS011;11651;52.136;5.572;2022-08-03T08:19:53;7.93;;;2.70;;
22969;SDS011;11651;52.136;5.572;2022-08-03T08:22:46;12.73;;;3.00;;
22969;SDS011;11651;52.136;5.572;2022-08-03T08:25:12;13.65;;;3.15;;
22969;SDS011;11651;52.136;5.572;2022-08-03T08:27:45;14.15;;;3.22;;
22969;SDS011;11651;52.136;5.572;2022-08-03T08:30:13;13.27;;;3.15;;
22969;SDS011;11651;52.136;5.572;2022-08-03T08:32:40;14.75;;;3.92;;
22969;SDS011;11651;52.136;5.572;2022-08-03T08:35:11;10.35;;;3.50;;
22969;SDS011;11651;52.136;5.572;2022-08-03T08:37:38;16.15;;;3.35;;
22969;SDS011;11651;52.136;5.572;2022-08-03T08:40:05;13.10;;;3.45;;
22969;SDS011;11651;52.136;5.572;2022-08-03T08:42:37;18.50;;;3.67;;
22969;SDS011;11651;52.136;5.572;2022-08-03T08:45:06;15.27;;;3.50;;
22969;SDS011;11651;52.136;5.572;2022-08-03T08:47:35;17.58;;;4.00;;
22969;SDS011;11651;52.136;5.572;2022-08-03T08:50:06;13.48;;;3.28;;
22969;SDS011;11651;52.136;5.572;2022-08-03T08:52:35;15.18;;;3.63;;
22969;SDS011;11651;52.136;5.572;2022-08-03T08:55:04;15.60;;;4.00;;
22969;SDS011;11651;52.136;5.572;2022-08-03T08:57:37;13.73;;;3.17;;
22969;SDS011;11651;52.136;5.572;2022-08-03T09:00:10;18.48;;;3.60;;
22969;SDS011;11651;52.136;5.572;2022-08-03T09:02:40;16.67;;;3.00;;
22969;SDS011;11651;52.136;5.572;2022-08-03T09:05:11;17.35;;;3.28;;
22969;SDS011;11651;52.136;5.572;2022-08-03T09:07:46;14.38;;;3.67;;
22969;SDS011;11651;52.136;5.572;2022-08-03T09:10:13;15.30;;;3.80;;
22969;SDS011;11651;52.136;5.572;2022-08-03T09:12:46;14.63;;;3.80;;
22969;SDS011;11651;52.136;5.572;2022-08-03T09:15:32;17.30;;;3.78;;
22969;SDS011;11651;52.136;5.572;2022-08-03T09:17:59;17.38;;;3.42;;
22969;SDS011;11651;52.136;5.572;2022-08-03T09:20:31;16.38;;;3.60;;
22969;SDS011;11651;52.136;5.572;2022-08-03T09:27:29;13.98;;;3.97;;
22969;SDS011;11651;52.136;5.572;2022-08-03T09:30:26;18.48;;;3.58;;
22969;SDS011;11651;52.136;5.572;2022-08-03T09:33:32;16.88;;;3.50;;
22969;SDS011;11651;52.136;5.572;2022-08-03T09:36:57;15.90;;;3.30;;
22969;SDS011;11651;52.136;5.572;2022-08-03T09:39:42;15.18;;;3.30;;
22969;SDS011;11651;52.136;5.572;2022-08-03T09:42:19;15.90;;;2.75;;
22969;SDS011;11651;52.136;5.572;2022-08-03T09:45:06;16.63;;;3.40;;
22969;SDS011;11651;52.136;5.572;2022-08-03T09:47:54;12.85;;;3.28;;
22969;SDS011;11651;52.136;5.572;2022-08-03T09:50:29;13.52;;;3.10;;
22969;SDS011;11651;52.136;5.572;2022-08-03T09:53:17;11.65;;;2.60;;
22969;SDS011;11651;52.136;5.572;2022-08-03T09:58:20;14.07;;;3.50;;
22969;SDS011;11651;52.136;5.572;2022-08-03T10:04:02;12.27;;;3.17;;
22969;SDS011;11651;52.136;5.572;2022-08-03T10:07:03;15.23;;;3.20;;
22969;SDS011;11651;52.136;5.572;2022-08-03T10:13:02;13.57;;;3.17;;
22969;SDS011;11651;52.136;5.572;2022-08-03T10:15:38;15.25;;;3.72;;
22969;SDS011;11651;52.136;5.572;2022-08-03T10:18:06;16.02;;;3.25;;
22969;SDS011;11651;52.136;5.572;2022-08-03T10:20:44;13.38;;;3.45;;
22969;SDS011;11651;52.136;5.572;2022-08-03T10:23:15;12.98;;;2.90;;
22969;SDS011;11651;52.136;5.572;2022-08-03T10:25:42;15.88;;;3.10;;
22969;SDS011;11651;52.136;5.572;2022-08-03T10:28:11;16.90;;;3.15;;
22969;SDS011;11651;52.136;5.572;2022-08-03T10:30:40;12.52;;;2.95;;
22969;SDS011;11651;52.136;5.572;2022-08-03T10:33:21;14.70;;;3.13;;
22969;SDS011;11651;52.136;5.572;2022-08-03T10:35:53;9.40;;;2.70;;
22969;SDS011;11651;52.136;5.572;2022-08-03T10:38:42;12.77;;;2.78;;
22969;SDS011;11651;52.136;5.572;2022-08-03T10:41:21;11.73;;;2.95;;
22969;SDS011;11651;52.136;5.572;2022-08-03T10:44:46;10.88;;;2.83;;
22969;SDS011;11651;52.136;5.572;2022-08-03T10:47:42;12.20;;;2.72;;
22969;SDS011;11651;52.136;5.572;2022-08-03T10:50:36;15.48;;;2.60;;
22969;SDS011;11651;52.136;5.572;2022-08-03T11:09:33;9.48;;;2.53;;
22969;SDS011;11651;52.136;5.572;2022-08-03T11:19:52;10.32;;;2.45;;
22969;SDS011;11651;52.136;5.572;2022-08-03T11:22:58;13.38;;;2.63;;
22969;SDS011;11651;52.136;5.572;2022-08-03T11:25:25;13.73;;;2.55;;
22969;SDS011;11651;52.136;5.572;2022-08-03T11:34:30;14.00;;;2.67;;
22969;SDS011;11651;52.136;5.572;2022-08-03T11:37:27;11.15;;;2.50;;
22969;SDS011;11651;52.136;5.572;2022-08-03T11:39:57;12.80;;;2.65;;
22969;SDS011;11651;52.136;5.572;2022-08-03T11:42:58;10.60;;;2.30;;
22969;SDS011;11651;52.136;5.572;2022-08-03T11:45:48;6.00;;;2.00;;
22969;SDS011;11651;52.136;5.572;2022-08-03T11:49:11;11.48;;;2.80;;
22969;SDS011;11651;52.136;5.572;2022-08-03T11:52:34;7.55;;;2.17;;
22969;SDS011;11651;52.136;5.572;2022-08-03T12:01:34;11.10;;;2.50;;
22969;SDS011;11651;52.136;5.572;2022-08-03T12:22:14;10.10;;;2.25;;
22969;SDS011;11651;52.136;5.572;2022-08-03T14:51:49;6.72;;;1.50;;
